createdAt,value
2023-05-28T00:00:48.417Z,10.54
2023-05-28T00:01:39.822Z,10.54
2023-05-28T00:02:33.941Z,10.53
2023-05-28T00:03:26.291Z,10.51
2023-05-28T00:04:18.018Z,10.50
2023-05-28T00:05:09.801Z,10.46
2023-05-28T00:06:01.512Z,10.43
2023-05-28T00:06:56.670Z,10.40
2023-05-28T00:07:48.216Z,10.36
2023-05-28T00:08:42.122Z,10.31
2023-05-28T00:09:35.874Z,10.27
2023-05-28T00:10:29.722Z,10.24
2023-05-28T00:11:22.672Z,10.22
2023-05-28T00:12:14.148Z,10.19
2023-05-28T00:13:05.899Z,10.17
2023-05-28T00:13:57.500Z,10.16
2023-05-28T00:14:49.434Z,10.12
2023-05-28T00:15:41.201Z,10.12
2023-05-28T00:16:36.404Z,10.11
2023-05-28T00:17:31.002Z,10.08
2023-05-28T00:18:22.695Z,10.09
2023-05-28T00:19:14.238Z,10.09
2023-05-28T00:20:06.860Z,10.12
2023-05-28T00:20:58.761Z,10.11
2023-05-28T00:21:50.226Z,10.07
2023-05-28T00:22:41.687Z,10.11
2023-05-28T00:23:33.333Z,10.08
2023-05-28T00:24:26.041Z,10.08
2023-05-28T00:25:17.586Z,10.05
2023-05-28T00:26:09.010Z,10.01
2023-05-28T00:27:00.869Z,9.97
2023-05-28T00:27:52.514Z,9.98
2023-05-28T00:28:44.023Z,10.08
2023-05-28T00:29:35.734Z,10.08
2023-05-28T00:30:27.682Z,10.12
2023-05-28T00:31:19.221Z,10.22
2023-05-28T00:32:10.708Z,10.20
2023-05-28T00:33:02.230Z,10.17
2023-05-28T00:33:53.989Z,10.13
2023-05-28T00:34:45.932Z,10.14
2023-05-28T00:35:37.493Z,10.15
2023-05-28T00:36:29.254Z,10.14
2023-05-28T00:37:21.053Z,10.21
2023-05-28T00:38:12.755Z,10.19
2023-05-28T00:39:06.008Z,10.19
2023-05-28T00:39:57.782Z,10.21
2023-05-28T00:40:51.704Z,10.19
2023-05-28T00:41:45.608Z,10.16
2023-05-28T00:42:37.282Z,10.08
2023-05-28T00:43:28.723Z,10.00
2023-05-28T00:44:20.269Z,9.98
2023-05-28T00:45:15.133Z,9.92
2023-05-28T00:46:07.994Z,9.91
2023-05-28T00:47:00.632Z,9.85
2023-05-28T00:47:55.514Z,9.81
2023-05-28T00:48:47.384Z,9.77
2023-05-28T00:49:38.796Z,9.76
2023-05-28T00:50:30.424Z,9.78
2023-05-28T00:51:22.144Z,9.80
2023-05-28T00:52:15.039Z,9.82
2023-05-28T00:53:08.055Z,9.79
2023-05-28T00:54:00.165Z,9.74
2023-05-28T00:54:52.077Z,9.68
2023-05-28T00:55:44.870Z,9.60
2023-05-28T00:56:36.676Z,9.57
2023-05-28T00:57:28.925Z,9.54
2023-05-28T00:58:21.643Z,9.50
2023-05-28T00:59:13.547Z,9.47
2023-05-28T01:00:05.733Z,9.45
2023-05-28T01:00:57.447Z,9.43
2023-05-28T01:01:49.183Z,9.49
2023-05-28T01:02:41.131Z,9.61
2023-05-28T01:03:33.391Z,9.65
2023-05-28T01:04:25.653Z,9.66
2023-05-28T01:05:18.155Z,9.64
2023-05-28T01:06:13.603Z,9.70
2023-05-28T01:07:05.706Z,9.71
2023-05-28T01:07:57.601Z,9.66
2023-05-28T01:08:50.669Z,9.66
2023-05-28T01:09:42.156Z,9.64
2023-05-28T01:10:36.385Z,9.61
2023-05-28T01:11:31.381Z,9.55
2023-05-28T01:12:26.906Z,9.50
2023-05-28T01:13:20.836Z,9.52
2023-05-28T01:14:14.325Z,9.51
2023-05-28T01:15:06.704Z,9.44
2023-05-28T01:16:05.984Z,9.40
2023-05-28T01:16:59.631Z,9.35
2023-05-28T01:17:59.379Z,9.32
2023-05-28T01:18:56.395Z,9.29
2023-05-28T01:19:50.895Z,9.24
2023-05-28T01:20:42.588Z,9.28
2023-05-28T01:21:41.115Z,9.29
2023-05-28T01:22:41.616Z,9.30
2023-05-28T01:23:44.810Z,9.32
2023-05-28T01:24:39.007Z,9.30
2023-05-28T01:25:32.063Z,9.32
2023-05-28T01:26:26.817Z,9.28
2023-05-28T01:27:19.293Z,9.20
2023-05-28T01:28:14.121Z,9.14
2023-05-28T01:29:16.720Z,9.11
2023-05-28T01:30:15.898Z,9.12
2023-05-28T01:31:10.848Z,9.12
2023-05-28T01:32:02.373Z,9.09
2023-05-28T01:32:55.136Z,9.06
2023-05-28T01:33:47.473Z,9.08
2023-05-28T01:34:39.150Z,9.08
2023-05-28T01:35:30.618Z,9.10
2023-05-28T01:36:31.865Z,9.05
2023-05-28T01:37:26.107Z,9.00
2023-05-28T01:38:24.554Z,8.98
2023-05-28T01:39:20.270Z,8.93
2023-05-28T01:40:15.566Z,8.91
2023-05-28T01:41:08.814Z,8.88
2023-05-28T01:42:03.815Z,8.89
2023-05-28T01:42:58.752Z,8.94
2023-05-28T01:43:51.112Z,8.94
2023-05-28T01:44:44.786Z,8.93
2023-05-28T01:45:37.235Z,8.87
2023-05-28T01:46:30.826Z,8.84
2023-05-28T01:47:23.583Z,8.82
2023-05-28T01:48:16.438Z,8.82
2023-05-28T01:49:10.570Z,8.78
2023-05-28T01:50:02.170Z,8.78
2023-05-28T01:50:55.117Z,8.74
2023-05-28T01:51:46.566Z,8.72
2023-05-28T01:52:39.719Z,8.67
2023-05-28T01:53:31.245Z,8.67
2023-05-28T01:54:23.634Z,8.66
2023-05-28T01:55:15.473Z,8.67
2023-05-28T01:56:10.426Z,8.69
2023-05-28T01:57:03.060Z,8.66
2023-05-28T01:57:56.855Z,8.65
2023-05-28T01:58:48.435Z,8.64
2023-05-28T01:59:39.972Z,8.66
2023-05-28T02:00:36.455Z,8.65
2023-05-28T02:01:34.601Z,8.65
2023-05-28T02:02:28.862Z,8.66
2023-05-28T02:03:20.547Z,8.62
2023-05-28T02:04:12.181Z,8.56
2023-05-28T02:05:04.934Z,8.56
2023-05-28T02:05:56.583Z,8.54
2023-05-28T02:06:48.369Z,8.58
2023-05-28T02:07:39.851Z,8.55
2023-05-28T02:08:31.318Z,8.53
2023-05-28T02:09:27.220Z,8.59
2023-05-28T02:10:18.681Z,8.73
2023-05-28T02:11:10.090Z,8.77
2023-05-28T02:12:04.207Z,8.78
2023-05-28T02:12:56.031Z,8.71
2023-05-28T02:13:47.561Z,8.65
2023-05-28T02:14:39.345Z,8.61
2023-05-28T02:15:30.994Z,8.55
2023-05-28T02:16:23.449Z,8.52
2023-05-28T02:17:15.134Z,8.46
2023-05-28T02:18:07.178Z,8.42
2023-05-28T02:19:00.179Z,8.41
2023-05-28T02:19:51.732Z,8.39
2023-05-28T02:20:43.848Z,8.35
2023-05-28T02:21:37.147Z,8.31
2023-05-28T02:22:28.640Z,8.26
2023-05-28T02:23:20.394Z,8.24
2023-05-28T02:24:12.865Z,8.20
2023-05-28T02:25:04.969Z,8.20
2023-05-28T02:25:57.474Z,8.33
2023-05-28T02:26:49.147Z,8.33
2023-05-28T02:27:40.644Z,8.29
2023-05-28T02:28:32.097Z,8.24
2023-05-28T02:29:23.532Z,8.19
2023-05-28T02:30:17.463Z,8.19
2023-05-28T02:31:08.901Z,8.18
2023-05-28T02:32:01.902Z,8.14
2023-05-28T02:32:53.674Z,8.12
2023-05-28T02:33:45.239Z,8.08
2023-05-28T02:34:36.962Z,8.07
2023-05-28T02:35:28.953Z,8.03
2023-05-28T02:36:24.122Z,8.02
2023-05-28T02:37:16.799Z,7.98
2023-05-28T02:38:09.295Z,7.96
2023-05-28T02:39:01.177Z,7.96
2023-05-28T02:39:52.722Z,7.92
2023-05-28T02:40:44.430Z,7.91
2023-05-28T02:41:36.261Z,7.90
2023-05-28T02:42:27.833Z,7.87
2023-05-28T02:43:19.301Z,7.88
2023-05-28T02:44:12.228Z,7.87
2023-05-28T02:45:05.229Z,7.85
2023-05-28T02:46:00.461Z,7.84
2023-05-28T02:46:51.922Z,7.84
2023-05-28T02:47:43.430Z,7.83
2023-05-28T02:48:35.400Z,7.82
2023-05-28T02:49:28.098Z,7.81
2023-05-28T02:50:19.554Z,7.81
2023-05-28T02:51:29.862Z,7.77
2023-05-28T02:52:50.369Z,7.75
2023-05-28T02:53:42.134Z,7.72
2023-05-28T02:54:34.065Z,7.70
2023-05-28T02:55:25.747Z,7.70
2023-05-28T02:56:17.548Z,7.71
2023-05-28T02:57:10.520Z,7.69
2023-05-28T02:58:02.296Z,7.69
2023-05-28T02:58:54.423Z,7.69
2023-05-28T02:59:46.076Z,7.70
2023-05-28T03:00:37.907Z,7.75
2023-05-28T03:01:29.538Z,7.74
2023-05-28T03:02:26.269Z,7.75
2023-05-28T03:03:20.396Z,7.77
2023-05-28T03:04:13.623Z,7.81
2023-05-28T03:05:06.141Z,7.81
2023-05-28T03:05:58.085Z,7.79
2023-05-28T03:06:51.965Z,7.79
2023-05-28T03:07:43.444Z,7.75
2023-05-28T03:08:35.059Z,7.72
2023-05-28T03:09:26.498Z,7.72
2023-05-28T03:10:18.870Z,7.72
2023-05-28T03:11:10.348Z,7.74
2023-05-28T03:12:04.605Z,7.74
2023-05-28T03:12:57.739Z,7.71
2023-05-28T03:13:49.213Z,7.79
2023-05-28T03:14:41.229Z,7.78
2023-05-28T03:15:33.876Z,7.76
2023-05-28T03:16:27.929Z,7.74
2023-05-28T03:17:19.984Z,7.74
2023-05-28T03:18:12.846Z,7.74
2023-05-28T03:19:09.238Z,7.70
2023-05-28T03:20:04.588Z,7.67
2023-05-28T03:20:56.223Z,7.62
2023-05-28T03:21:47.910Z,7.61
2023-05-28T03:22:43.820Z,7.58
2023-05-28T03:23:35.578Z,7.55
2023-05-28T03:24:36.161Z,7.53
2023-05-28T03:25:34.563Z,7.56
2023-05-28T03:26:26.386Z,7.53
2023-05-28T03:27:18.235Z,7.50
2023-05-28T03:28:09.797Z,7.51
2023-05-28T03:29:13.779Z,7.50
2023-05-28T03:30:20.071Z,7.51
2023-05-28T03:31:15.157Z,7.55
2023-05-28T03:32:07.138Z,7.57
2023-05-28T03:32:58.705Z,7.63
2023-05-28T03:33:50.216Z,7.66
2023-05-28T03:34:41.793Z,7.66
2023-05-28T03:35:33.283Z,7.62
2023-05-28T03:36:27.496Z,7.61
2023-05-28T03:37:19.179Z,7.61
2023-05-28T03:38:10.930Z,7.63
2023-05-28T03:39:02.406Z,7.63
2023-05-28T03:39:55.089Z,7.67
2023-05-28T03:40:47.651Z,7.65
2023-05-28T03:41:39.248Z,7.64
2023-05-28T03:42:32.634Z,7.62
2023-05-28T03:43:24.626Z,7.61
2023-05-28T03:44:18.406Z,7.59
2023-05-28T03:45:10.878Z,7.57
2023-05-28T03:46:03.225Z,7.55
2023-05-28T03:46:54.822Z,7.54
2023-05-28T03:47:47.675Z,7.53
2023-05-28T03:48:39.974Z,7.53
2023-05-28T03:49:32.304Z,7.52
2023-05-28T03:50:27.637Z,7.52
2023-05-28T03:51:19.250Z,7.51
2023-05-28T03:52:11.524Z,7.51
2023-05-28T03:53:13.015Z,7.50
2023-05-28T03:54:07.210Z,7.49
2023-05-28T03:55:00.201Z,7.50
2023-05-28T03:55:52.616Z,7.50
2023-05-28T03:56:45.519Z,7.50
2023-05-28T03:57:37.475Z,7.51
2023-05-28T03:58:28.977Z,7.50
2023-05-28T03:59:24.750Z,7.52
2023-05-28T04:00:18.810Z,7.52
2023-05-28T04:01:10.265Z,7.55
2023-05-28T04:02:01.827Z,7.60
2023-05-28T04:02:53.751Z,7.72
2023-05-28T04:03:45.697Z,7.70
2023-05-28T04:04:37.283Z,7.69
2023-05-28T04:05:28.891Z,7.65
2023-05-28T04:06:20.807Z,7.63
2023-05-28T04:07:12.531Z,7.64
2023-05-28T04:08:04.933Z,7.64
2023-05-28T04:08:58.299Z,7.62
2023-05-28T04:09:49.955Z,7.62
2023-05-28T04:10:41.464Z,7.62
2023-05-28T04:11:35.702Z,7.65
2023-05-28T04:12:27.635Z,7.66
2023-05-28T04:13:19.087Z,7.69
2023-05-28T04:14:10.600Z,7.72
2023-05-28T04:15:04.896Z,7.70
2023-05-28T04:15:56.820Z,7.70
2023-05-28T04:16:51.402Z,7.72
2023-05-28T04:17:43.451Z,7.70
2023-05-28T04:18:34.975Z,7.72
2023-05-28T04:19:27.132Z,7.75
2023-05-28T04:20:18.936Z,7.75
2023-05-28T04:21:13.845Z,7.77
2023-05-28T04:22:06.175Z,7.78
2023-05-28T04:22:57.750Z,7.79
2023-05-28T04:23:49.860Z,7.81
2023-05-28T04:24:42.160Z,7.81
2023-05-28T04:25:35.510Z,7.80
2023-05-28T04:26:27.422Z,7.80
2023-05-28T04:27:21.158Z,7.81
2023-05-28T04:28:12.646Z,7.82
2023-05-28T04:29:04.334Z,7.86
2023-05-28T04:29:57.824Z,7.85
2023-05-28T04:30:49.776Z,7.86
2023-05-28T04:31:45.407Z,7.89
2023-05-28T04:32:40.104Z,7.89
2023-05-28T04:33:31.786Z,7.90
2023-05-28T04:34:25.509Z,7.90
2023-05-28T04:35:20.651Z,7.93
2023-05-28T04:36:14.459Z,7.95
2023-05-28T04:37:06.174Z,7.99
2023-05-28T04:37:57.566Z,8.03
2023-05-28T04:38:49.044Z,8.05
2023-05-28T04:39:40.499Z,8.07
2023-05-28T04:40:33.480Z,8.08
2023-05-28T04:41:26.194Z,8.09
2023-05-28T04:42:19.197Z,8.10
2023-05-28T04:43:10.901Z,8.10
2023-05-28T04:44:10.593Z,8.12
2023-05-28T04:45:05.779Z,8.14
2023-05-28T04:45:59.804Z,8.18
2023-05-28T04:46:55.077Z,8.19
2023-05-28T04:47:46.661Z,8.23
2023-05-28T04:48:38.184Z,8.25
2023-05-28T04:49:30.518Z,8.26
2023-05-28T04:50:24.388Z,8.28
2023-05-28T04:51:21.785Z,8.31
2023-05-28T04:52:13.260Z,8.34
2023-05-28T04:53:04.766Z,8.39
2023-05-28T04:53:57.417Z,8.45
2023-05-28T04:54:48.879Z,8.49
2023-05-28T04:55:41.118Z,8.53
2023-05-28T04:56:32.789Z,8.55
2023-05-28T04:57:24.495Z,8.59
2023-05-28T04:58:16.917Z,8.61
2023-05-28T04:59:10.891Z,8.64
2023-05-28T05:00:04.436Z,8.66
2023-05-28T05:00:56.997Z,8.68
2023-05-28T05:01:49.315Z,8.69
2023-05-28T05:02:44.581Z,8.73
2023-05-28T05:03:36.747Z,8.74
2023-05-28T05:04:30.124Z,8.78
2023-05-28T05:05:21.716Z,8.82
2023-05-28T05:06:13.186Z,8.86
2023-05-28T05:07:05.119Z,8.92
2023-05-28T05:07:57.538Z,8.96
2023-05-28T05:08:49.456Z,8.99
2023-05-28T05:09:41.308Z,9.07
2023-05-28T05:10:32.965Z,9.11
2023-05-28T05:11:27.222Z,9.14
2023-05-28T05:12:19.614Z,9.19
2023-05-28T05:13:13.825Z,9.23
2023-05-28T05:14:08.518Z,9.29
2023-05-28T05:14:59.943Z,9.32
2023-05-28T05:15:52.618Z,9.34
2023-05-28T05:16:47.086Z,9.38
2023-05-28T05:17:38.624Z,9.42
2023-05-28T05:18:31.710Z,9.47
2023-05-28T05:19:23.137Z,9.50
2023-05-28T05:20:14.704Z,9.51
2023-05-28T05:21:06.357Z,9.55
2023-05-28T05:21:57.777Z,9.61
2023-05-28T05:22:49.201Z,9.68
2023-05-28T05:23:41.145Z,9.72
2023-05-28T05:24:33.292Z,9.75
2023-05-28T05:25:24.784Z,9.78
2023-05-28T05:26:18.388Z,9.79
2023-05-28T05:27:10.159Z,9.83
2023-05-28T05:28:01.686Z,9.86
2023-05-28T05:28:54.621Z,9.94
2023-05-28T05:29:46.371Z,9.94
2023-05-28T05:30:38.080Z,9.97
2023-05-28T05:31:34.817Z,9.97
2023-05-28T05:32:26.434Z,10.05
2023-05-28T05:33:18.747Z,10.07
2023-05-28T05:34:36.323Z,10.15
2023-05-28T05:35:46.741Z,10.21
2023-05-28T05:36:53.498Z,10.21
2023-05-28T05:38:03.763Z,10.24
2023-05-28T05:39:15.592Z,10.29
2023-05-28T05:40:36.524Z,10.35
2023-05-28T05:41:39.405Z,10.38
2023-05-28T05:42:42.021Z,10.40
2023-05-28T05:43:34.429Z,10.42
2023-05-28T05:44:26.113Z,10.45
2023-05-28T05:45:17.578Z,10.50
2023-05-28T05:46:10.633Z,10.51
2023-05-28T05:47:02.186Z,10.53
2023-05-28T05:47:53.742Z,10.61
2023-05-28T05:48:45.321Z,10.65
2023-05-28T05:49:37.843Z,10.71
2023-05-28T05:50:29.478Z,10.78
2023-05-28T05:51:22.136Z,10.85
2023-05-28T05:52:13.838Z,10.96
2023-05-28T05:53:09.398Z,11.06
2023-05-28T05:54:00.891Z,11.12
2023-05-28T05:54:53.065Z,11.22
2023-05-28T05:55:45.113Z,11.30
2023-05-28T05:56:36.845Z,11.38
2023-05-28T05:57:28.405Z,11.41
2023-05-28T05:58:20.998Z,11.44
2023-05-28T05:59:12.654Z,11.48
2023-05-28T06:00:09.491Z,11.51
2023-05-28T06:01:11.045Z,11.57
2023-05-28T06:02:02.759Z,11.60
2023-05-28T06:02:57.372Z,11.63
2023-05-28T06:04:18.195Z,11.69
2023-05-28T06:05:35.154Z,11.73
2023-05-28T06:06:40.470Z,11.80
2023-05-28T06:07:54.772Z,11.86
2023-05-28T06:09:05.590Z,11.90
2023-05-28T06:10:10.264Z,11.97
2023-05-28T06:11:06.354Z,11.98
2023-05-28T06:11:58.112Z,11.99
2023-05-28T06:12:49.604Z,12.00
2023-05-28T06:13:41.417Z,12.04
2023-05-28T06:14:33.506Z,12.06
2023-05-28T06:15:25.900Z,12.10
2023-05-28T06:16:17.605Z,12.16
2023-05-28T06:17:10.316Z,12.23
2023-05-28T06:18:02.784Z,12.30
2023-05-28T06:18:55.460Z,12.36
2023-05-28T06:19:50.198Z,12.44
2023-05-28T06:20:43.662Z,12.48
2023-05-28T06:21:37.817Z,12.59
2023-05-28T06:22:30.989Z,12.62
2023-05-28T06:23:22.605Z,12.64
2023-05-28T06:24:14.861Z,12.67
2023-05-28T06:25:09.684Z,12.70
2023-05-28T06:26:04.605Z,12.70
2023-05-28T06:26:56.048Z,12.70
2023-05-28T06:27:50.775Z,12.73
2023-05-28T06:28:42.483Z,12.74
2023-05-28T06:29:33.944Z,12.77
2023-05-28T06:30:28.587Z,12.80
2023-05-28T06:31:22.945Z,12.81
2023-05-28T06:32:15.715Z,12.86
2023-05-28T06:33:10.404Z,12.96
2023-05-28T06:34:03.759Z,12.97
2023-05-28T06:34:55.359Z,12.99
2023-05-28T06:35:47.159Z,13.07
2023-05-28T06:36:39.403Z,13.09
2023-05-28T06:37:30.879Z,13.14
2023-05-28T06:38:22.789Z,13.17
2023-05-28T06:39:14.295Z,13.19
2023-05-28T06:40:11.886Z,13.24
2023-05-28T06:41:03.983Z,13.31
2023-05-28T06:42:01.972Z,13.39
2023-05-28T06:43:06.016Z,13.42
2023-05-28T06:44:01.279Z,13.44
2023-05-28T06:45:02.060Z,13.46
2023-05-28T06:45:54.096Z,13.51
2023-05-28T06:46:48.918Z,13.54
2023-05-28T06:47:40.704Z,13.57
2023-05-28T06:48:33.290Z,13.62
2023-05-28T06:49:24.736Z,13.62
2023-05-28T06:50:19.971Z,13.64
2023-05-28T06:51:15.914Z,13.67
2023-05-28T06:52:08.054Z,13.76
2023-05-28T06:53:02.768Z,13.77
2023-05-28T06:53:54.272Z,13.77
2023-05-28T06:54:50.689Z,13.77
2023-05-28T06:55:44.029Z,13.82
2023-05-28T06:56:56.549Z,13.84
2023-05-28T06:57:50.669Z,13.86
2023-05-28T06:59:17.202Z,13.94
2023-05-28T07:00:28.386Z,14.04
2023-05-28T07:01:31.474Z,14.16
2023-05-28T07:02:48.973Z,14.21
2023-05-28T07:04:03.764Z,14.35
2023-05-28T07:05:05.566Z,14.43
2023-05-28T07:05:59.522Z,14.53
2023-05-28T07:06:51.265Z,14.57
2023-05-28T07:07:50.106Z,14.63
2023-05-28T07:08:45.256Z,14.67
2023-05-28T07:09:37.525Z,14.75
2023-05-28T07:10:29.638Z,14.80
2023-05-28T07:11:21.477Z,14.79
2023-05-28T07:12:12.953Z,14.82
2023-05-28T07:13:10.099Z,14.89
2023-05-28T07:14:01.714Z,14.99
2023-05-28T07:14:53.395Z,15.04
2023-05-28T07:15:45.541Z,15.05
2023-05-28T07:16:37.319Z,15.09
2023-05-28T07:17:29.377Z,15.17
2023-05-28T07:18:21.196Z,15.25
2023-05-28T07:19:12.691Z,15.28
2023-05-28T07:20:07.800Z,15.38
2023-05-28T07:21:21.681Z,15.55
2023-05-28T07:22:13.266Z,15.58
2023-05-28T07:23:05.832Z,15.62
2023-05-28T07:23:57.379Z,15.69
2023-05-28T07:24:51.952Z,15.74
2023-05-28T07:25:44.325Z,15.79
2023-05-28T07:26:36.474Z,15.93
2023-05-28T07:27:28.489Z,16.11
2023-05-28T07:28:20.038Z,16.23
2023-05-28T07:29:16.461Z,16.27
2023-05-28T07:30:09.057Z,16.37
2023-05-28T07:31:02.729Z,16.41
2023-05-28T07:31:55.080Z,16.48
2023-05-28T07:32:51.883Z,16.55
2023-05-28T07:33:43.382Z,16.60
2023-05-28T07:34:34.898Z,16.66
2023-05-28T07:35:26.675Z,16.69
2023-05-28T07:36:18.140Z,16.74
2023-05-28T07:37:11.976Z,16.81
2023-05-28T07:38:06.929Z,16.83
2023-05-28T07:38:58.444Z,16.83
2023-05-28T07:39:50.284Z,16.95
2023-05-28T07:40:42.606Z,17.03
2023-05-28T07:41:43.188Z,17.06
2023-05-28T07:42:57.604Z,17.27
2023-05-28T07:43:49.776Z,17.36
2023-05-28T07:44:44.795Z,17.69
2023-05-28T07:45:38.478Z,17.77
2023-05-28T07:46:30.946Z,17.83
2023-05-28T07:47:33.214Z,17.99
2023-05-28T07:48:38.782Z,17.99
2023-05-28T07:49:35.791Z,18.01
2023-05-28T07:50:28.047Z,17.96
2023-05-28T07:51:36.437Z,17.93
2023-05-28T07:52:34.658Z,17.96
2023-05-28T07:53:26.318Z,17.97
2023-05-28T07:54:17.828Z,18.07
2023-05-28T07:55:11.141Z,18.07
2023-05-28T07:56:03.699Z,18.05
2023-05-28T07:56:57.232Z,18.06
2023-05-28T07:57:54.128Z,18.06
2023-05-28T07:58:46.612Z,18.08
2023-05-28T07:59:40.436Z,18.07
2023-05-28T08:00:33.692Z,18.04
2023-05-28T08:01:27.559Z,18.11
2023-05-28T08:02:20.227Z,18.18
2023-05-28T08:03:12.601Z,18.21
2023-05-28T08:04:08.204Z,18.26
2023-05-28T08:05:03.218Z,18.32
2023-05-28T08:05:56.245Z,18.31
2023-05-28T08:06:48.053Z,18.28
2023-05-28T08:07:43.569Z,18.21
2023-05-28T08:08:35.300Z,18.18
2023-05-28T08:09:27.615Z,18.16
2023-05-28T08:10:21.981Z,18.09
2023-05-28T08:11:15.882Z,18.08
2023-05-28T08:12:07.802Z,18.07
2023-05-28T08:12:59.862Z,18.06
2023-05-28T08:13:51.373Z,18.08
2023-05-28T08:14:43.423Z,18.05
2023-05-28T08:15:36.985Z,18.12
2023-05-28T08:16:33.114Z,18.33
2023-05-28T08:17:37.246Z,18.71
2023-05-28T08:18:41.771Z,18.66
2023-05-28T08:19:33.274Z,18.74
2023-05-28T08:20:30.248Z,18.65
2023-05-28T08:21:28.076Z,18.64
2023-05-28T08:22:19.648Z,18.81
2023-05-28T08:23:12.425Z,18.99
2023-05-28T08:24:04.550Z,19.21
2023-05-28T08:24:57.231Z,19.17
2023-05-28T08:25:48.817Z,19.16
2023-05-28T08:26:45.776Z,19.07
2023-05-28T08:27:37.453Z,18.94
2023-05-28T08:28:30.822Z,19.03
2023-05-28T08:29:24.818Z,19.07
2023-05-28T08:30:23.504Z,19.13
2023-05-28T08:31:23.881Z,19.14
2023-05-28T08:32:39.676Z,19.25
2023-05-28T08:33:31.286Z,19.17
2023-05-28T08:34:23.449Z,19.11
2023-05-28T08:35:16.572Z,19.13
2023-05-28T08:36:08.171Z,19.19
2023-05-28T08:37:00.596Z,19.17
2023-05-28T08:37:59.652Z,19.29
2023-05-28T08:39:00.168Z,19.54
2023-05-28T08:39:52.551Z,19.83
2023-05-28T08:40:54.593Z,19.85
2023-05-28T08:41:46.809Z,19.86
2023-05-28T08:42:44.368Z,19.94
2023-05-28T08:43:37.559Z,20.07
2023-05-28T08:44:29.145Z,20.21
2023-05-28T08:45:21.350Z,20.22
2023-05-28T08:46:16.116Z,20.17
2023-05-28T08:47:34.304Z,20.45
2023-05-28T08:48:35.684Z,20.34
2023-05-28T08:49:39.329Z,20.20
2023-05-28T08:50:41.357Z,20.47
2023-05-28T08:51:43.531Z,20.32
2023-05-28T08:52:38.359Z,20.29
2023-05-28T08:53:41.640Z,20.29
2023-05-28T08:54:35.263Z,20.31
2023-05-28T08:55:26.674Z,20.22
2023-05-28T08:56:28.215Z,20.10
2023-05-28T08:57:22.119Z,20.12
2023-05-28T08:58:25.216Z,20.11
2023-05-28T08:59:17.447Z,20.20
2023-05-28T09:00:14.730Z,20.22
2023-05-28T09:01:33.898Z,20.25
2023-05-28T09:02:34.563Z,20.29
2023-05-28T09:03:26.455Z,20.39
2023-05-28T09:04:20.641Z,20.30
2023-05-28T09:05:13.801Z,20.37
2023-05-28T09:06:05.241Z,20.36
2023-05-28T09:06:57.135Z,20.39
2023-05-28T09:08:02.797Z,20.49
2023-05-28T09:08:54.705Z,20.56
2023-05-28T09:10:27.131Z,20.62
2023-05-28T09:11:19.714Z,20.64
2023-05-28T09:12:13.430Z,20.60
2023-05-28T09:13:08.672Z,20.59
2023-05-28T09:14:10.068Z,20.51
2023-05-28T09:15:02.141Z,20.50
2023-05-28T09:15:55.951Z,20.59
2023-05-28T09:16:47.411Z,20.61
2023-05-28T09:17:45.428Z,20.82
2023-05-28T09:18:45.475Z,20.88
2023-05-28T09:19:38.864Z,20.85
2023-05-28T09:20:30.470Z,20.94
2023-05-28T09:21:22.181Z,20.92
2023-05-28T09:22:14.017Z,20.84
2023-05-28T09:23:17.915Z,21.00
2023-05-28T09:24:32.069Z,21.06
2023-05-28T09:25:46.071Z,21.13
2023-05-28T09:26:42.463Z,21.06
2023-05-28T09:27:46.957Z,21.09
2023-05-28T09:28:44.774Z,21.09
2023-05-28T09:29:36.806Z,21.12
2023-05-28T09:30:30.397Z,21.20
2023-05-28T09:31:34.818Z,21.17
2023-05-28T09:32:26.666Z,21.15
2023-05-28T09:33:19.071Z,21.20
2023-05-28T09:34:12.994Z,21.34
2023-05-28T09:35:08.542Z,21.70
2023-05-28T09:36:01.663Z,21.75
2023-05-28T09:36:53.470Z,21.62
2023-05-28T09:37:44.854Z,21.61
2023-05-28T09:38:41.050Z,21.60
2023-05-28T09:39:34.992Z,21.58
2023-05-28T09:40:27.444Z,21.61
2023-05-28T09:41:21.193Z,21.64
2023-05-28T09:42:14.181Z,21.76
2023-05-28T09:43:06.979Z,21.73
2023-05-28T09:44:03.721Z,21.60
2023-05-28T09:44:55.140Z,21.50
2023-05-28T09:45:48.732Z,21.47
2023-05-28T09:46:40.186Z,21.54
2023-05-28T09:47:31.702Z,21.61
2023-05-28T09:48:23.217Z,21.60
2023-05-28T09:49:14.815Z,21.65
2023-05-28T09:50:08.882Z,21.75
2023-05-28T09:51:05.483Z,21.82
2023-05-28T09:52:03.669Z,21.79
2023-05-28T09:52:58.251Z,21.80
2023-05-28T09:54:01.325Z,21.86
2023-05-28T09:54:56.341Z,21.98
2023-05-28T09:55:48.327Z,22.01
2023-05-28T09:56:43.336Z,22.13
2023-05-28T09:57:39.270Z,22.06
2023-05-28T09:58:35.477Z,21.97
2023-05-28T09:59:28.115Z,21.96
2023-05-28T10:00:27.337Z,22.04
2023-05-28T10:01:26.026Z,22.04
2023-05-28T10:02:38.964Z,22.06
2023-05-28T10:03:45.121Z,22.12
2023-05-28T10:04:39.311Z,22.09
2023-05-28T10:05:34.527Z,22.02
2023-05-28T10:06:27.084Z,22.00
2023-05-28T10:07:22.919Z,22.01
2023-05-28T10:08:17.073Z,22.25
2023-05-28T10:09:17.223Z,22.69
2023-05-28T10:10:13.548Z,22.63
2023-05-28T10:11:11.848Z,22.47
2023-05-28T10:12:11.490Z,22.42
2023-05-28T10:13:03.316Z,22.44
2023-05-28T10:13:57.211Z,22.38
2023-05-28T10:14:53.065Z,22.53
2023-05-28T10:15:46.422Z,22.40
2023-05-28T10:16:39.146Z,22.29
2023-05-28T10:17:31.088Z,22.24
2023-05-28T10:18:26.342Z,22.27
2023-05-28T10:19:18.677Z,22.25
2023-05-28T10:20:15.179Z,22.16
2023-05-28T10:21:08.561Z,22.10
2023-05-28T10:22:00.545Z,22.10
2023-05-28T10:22:52.401Z,22.22
2023-05-28T10:23:46.126Z,22.27
2023-05-28T10:24:37.975Z,22.39
2023-05-28T10:25:32.575Z,22.52
2023-05-28T10:26:25.835Z,22.58
2023-05-28T10:27:20.109Z,22.72
2023-05-28T10:28:15.789Z,22.61
2023-05-28T10:29:08.824Z,22.53
2023-05-28T10:30:05.117Z,22.61
2023-05-28T10:31:08.705Z,22.75
2023-05-28T10:32:01.958Z,22.75
2023-05-28T10:32:58.669Z,22.91
2023-05-28T10:33:53.138Z,22.94
2023-05-28T10:34:45.311Z,22.89
2023-05-28T10:35:55.662Z,22.95
2023-05-28T10:37:03.054Z,22.94
2023-05-28T10:38:08.879Z,22.96
2023-05-28T10:39:04.898Z,22.90
2023-05-28T10:40:03.256Z,22.75
2023-05-28T10:41:02.379Z,22.84
2023-05-28T10:41:59.548Z,22.84
2023-05-28T10:42:51.241Z,22.85
2023-05-28T10:43:46.296Z,22.90
2023-05-28T10:44:54.103Z,22.93
2023-05-28T10:45:49.978Z,23.01
2023-05-28T10:46:42.149Z,23.02
2023-05-28T10:47:38.439Z,22.92
2023-05-28T10:48:32.637Z,23.05
2023-05-28T10:49:25.048Z,22.94
2023-05-28T10:50:20.086Z,23.16
2023-05-28T10:51:11.922Z,23.17
2023-05-28T10:52:04.182Z,23.09
2023-05-28T10:53:10.080Z,23.06
2023-05-28T10:54:16.257Z,23.13
2023-05-28T10:55:10.932Z,23.16
2023-05-28T10:56:03.158Z,23.23
2023-05-28T10:57:12.548Z,23.18
2023-05-28T10:58:13.740Z,23.25
2023-05-28T10:59:17.607Z,23.18
2023-05-28T11:00:14.506Z,23.22
2023-05-28T11:01:12.481Z,23.33
2023-05-28T11:02:04.900Z,23.32
2023-05-28T11:02:58.737Z,23.33
2023-05-28T11:03:55.844Z,23.42
2023-05-28T11:04:55.055Z,23.37
2023-05-28T11:05:46.671Z,23.22
2023-05-28T11:06:41.228Z,23.12
2023-05-28T11:07:34.636Z,23.05
2023-05-28T11:08:26.396Z,23.13
2023-05-28T11:09:20.255Z,23.12
2023-05-28T11:10:19.990Z,23.20
2023-05-28T11:11:18.704Z,23.19
2023-05-28T11:12:10.526Z,23.12
2023-05-28T11:13:05.052Z,23.05
2023-05-28T11:13:56.516Z,23.09
2023-05-28T11:14:49.017Z,23.06
2023-05-28T11:15:41.910Z,23.10
2023-05-28T11:16:35.532Z,23.12
2023-05-28T11:17:27.201Z,23.24
2023-05-28T11:18:18.638Z,23.39
2023-05-28T11:19:12.137Z,23.35
2023-05-28T11:20:04.902Z,23.38
2023-05-28T11:21:03.882Z,23.33
2023-05-28T11:21:59.491Z,23.36
2023-05-28T11:22:51.385Z,23.44
2023-05-28T11:23:42.947Z,23.60
2023-05-28T11:24:50.682Z,23.72
2023-05-28T11:25:46.540Z,23.78
2023-05-28T11:26:38.330Z,23.73
2023-05-28T11:27:31.538Z,23.78
2023-05-28T11:28:23.084Z,23.75
2023-05-28T11:29:16.513Z,23.76
2023-05-28T11:30:17.385Z,23.75
2023-05-28T11:31:09.196Z,23.78
2023-05-28T11:32:03.001Z,23.81
2023-05-28T11:32:55.527Z,23.81
2023-05-28T11:33:50.797Z,23.89
2023-05-28T11:34:42.445Z,23.85
2023-05-28T11:35:38.149Z,23.84
2023-05-28T11:36:30.124Z,23.88
2023-05-28T11:37:34.708Z,23.88
2023-05-28T11:38:28.446Z,23.86
2023-05-28T11:39:19.840Z,23.95
2023-05-28T11:40:14.938Z,23.88
2023-05-28T11:41:07.576Z,23.89
2023-05-28T11:42:01.416Z,23.92
2023-05-28T11:43:01.068Z,23.91
2023-05-28T11:43:52.479Z,23.78
2023-05-28T11:44:45.777Z,23.73
2023-05-28T11:45:39.188Z,23.71
2023-05-28T11:46:31.458Z,23.80
2023-05-28T11:47:27.193Z,23.75
2023-05-28T11:48:18.738Z,23.69
2023-05-28T11:49:14.625Z,23.67
2023-05-28T11:50:10.313Z,23.70
2023-05-28T11:51:02.585Z,23.76
2023-05-28T11:51:56.156Z,23.93
2023-05-28T11:52:47.838Z,24.04
2023-05-28T11:53:44.338Z,24.24